Vandiver Village, Missouri
Current Conditions -  °F | °C
As of 2:54 AM on Friday 24 Oct 2014 (Local Time) from KCOU Reporting Station
Moderate Fog Moderate Fog  
Wind Chill: 51°   Ceiling: 400
Heat Index: 51°   Visibility: 0.25mi
Dew Point: 50°   Wind: 6mph
Humidity: 96%   Direction: 220°SW
Pressure: 30.09"   Gusts: NA
Location:  39.1882°N, 91.8924°W
Report Text: KCOU 240754Z AUTO 22005KT 1/4SM FG VV004 11/10 A3009 RMK AO2 SLP188 T01060100
Loading
Personal Weather Stations






























Interactive Weather Map
Tropical Storm Tracking
New forecast layout! Learn more

10-Day Weather Forecast

Advertisements
Track Severe Weather on mobile